sensor_id;sensor_type;location;lat;lon;timestamp;temperature;humidity
12477;DHT22;6303;51.504;6.300;2023-05-10T00:02:15;24.80;72.80
12477;DHT22;6303;51.504;6.300;2023-05-10T00:04:42;24.80;72.80
12477;DHT22;6303;51.504;6.300;2023-05-10T00:07:10;24.80;72.80
12477;DHT22;6303;51.504;6.300;2023-05-10T00:09:37;24.80;73.00
12477;DHT22;6303;51.504;6.300;2023-05-10T00:12:05;24.70;72.80
12477;DHT22;6303;51.504;6.300;2023-05-10T00:14:32;24.70;72.90
12477;DHT22;6303;51.504;6.300;2023-05-10T00:16:59;24.70;72.90
12477;DHT22;6303;51.504;6.300;2023-05-10T00:19:26;24.70;72.90
12477;DHT22;6303;51.504;6.300;2023-05-10T00:21:53;24.70;73.00
12477;DHT22;6303;51.504;6.300;2023-05-10T00:24:21;24.80;73.10
12477;DHT22;6303;51.504;6.300;2023-05-10T00:26:48;24.70;73.10
12477;DHT22;6303;51.504;6.300;2023-05-10T00:29:15;24.80;73.20
12477;DHT22;6303;51.504;6.300;2023-05-10T00:31:42;24.70;73.20
12477;DHT22;6303;51.504;6.300;2023-05-10T00:34:09;24.70;73.20
12477;DHT22;6303;51.504;6.300;2023-05-10T00:36:36;24.70;73.20
12477;DHT22;6303;51.504;6.300;2023-05-10T00:39:03;24.70;73.30
12477;DHT22;6303;51.504;6.300;2023-05-10T00:41:32;24.70;73.30
12477;DHT22;6303;51.504;6.300;2023-05-10T00:44:00;24.70;73.30
12477;DHT22;6303;51.504;6.300;2023-05-10T00:46:28;24.70;73.20
12477;DHT22;6303;51.504;6.300;2023-05-10T00:48:56;24.70;73.30
12477;DHT22;6303;51.504;6.300;2023-05-10T00:51:23;24.70;73.40
12477;DHT22;6303;51.504;6.300;2023-05-10T00:53:51;24.70;73.40
12477;DHT22;6303;51.504;6.300;2023-05-10T00:56:18;24.70;73.40
12477;DHT22;6303;51.504;6.300;2023-05-10T00:58:49;24.70;73.40
12477;DHT22;6303;51.504;6.300;2023-05-10T01:01:16;24.70;73.40
12477;DHT22;6303;51.504;6.300;2023-05-10T01:03:44;24.70;73.40
12477;DHT22;6303;51.504;6.300;2023-05-10T01:06:12;24.70;73.40
12477;DHT22;6303;51.504;6.300;2023-05-10T01:08:39;24.70;73.50
12477;DHT22;6303;51.504;6.300;2023-05-10T01:11:07;24.70;73.50
12477;DHT22;6303;51.504;6.300;2023-05-10T01:13:36;24.60;73.50
12477;DHT22;6303;51.504;6.300;2023-05-10T01:16:06;24.60;73.60
12477;DHT22;6303;51.504;6.300;2023-05-10T01:18:35;24.60;73.60
12477;DHT22;6303;51.504;6.300;2023-05-10T01:21:14;24.60;73.70
12477;DHT22;6303;51.504;6.300;2023-05-10T01:24:09;24.60;73.60
12477;DHT22;6303;51.504;6.300;2023-05-10T01:27:07;24.60;73.60
12477;DHT22;6303;51.504;6.300;2023-05-10T01:32:41;24.60;73.60
12477;DHT22;6303;51.504;6.300;2023-05-10T01:35:17;24.60;73.60
12477;DHT22;6303;51.504;6.300;2023-05-10T01:37:49;24.60;73.70
12477;DHT22;6303;51.504;6.300;2023-05-10T01:40:22;24.60;73.80
12477;DHT22;6303;51.504;6.300;2023-05-10T01:42:53;24.60;73.80
12477;DHT22;6303;51.504;6.300;2023-05-10T01:45:28;24.60;73.90
12477;DHT22;6303;51.504;6.300;2023-05-10T01:48:05;24.60;73.90
12477;DHT22;6303;51.504;6.300;2023-05-10T01:50:35;24.60;73.90
12477;DHT22;6303;51.504;6.300;2023-05-10T01:53:08;24.60;73.90
12477;DHT22;6303;51.504;6.300;2023-05-10T01:55:41;24.60;73.90
12477;DHT22;6303;51.504;6.300;2023-05-10T01:58:13;24.60;73.90
12477;DHT22;6303;51.504;6.300;2023-05-10T02:00:43;24.60;74.00
12477;DHT22;6303;51.504;6.300;2023-05-10T02:03:13;24.60;74.00
12477;DHT22;6303;51.504;6.300;2023-05-10T02:05:43;24.60;74.00
12477;DHT22;6303;51.504;6.300;2023-05-10T02:08:12;24.60;73.90
12477;DHT22;6303;51.504;6.300;2023-05-10T02:10:41;24.60;73.90
12477;DHT22;6303;51.504;6.300;2023-05-10T02:13:10;24.60;73.90
12477;DHT22;6303;51.504;6.300;2023-05-10T02:15:38;24.60;74.00
12477;DHT22;6303;51.504;6.300;2023-05-10T02:18:07;24.60;74.00
12477;DHT22;6303;51.504;6.300;2023-05-10T02:20:37;24.60;73.90
12477;DHT22;6303;51.504;6.300;2023-05-10T02:23:06;24.60;74.10
12477;DHT22;6303;51.504;6.300;2023-05-10T02:25:36;24.50;74.00
12477;DHT22;6303;51.504;6.300;2023-05-10T02:28:06;24.60;74.10
12477;DHT22;6303;51.504;6.300;2023-05-10T02:30:35;24.60;74.10
12477;DHT22;6303;51.504;6.300;2023-05-10T02:33:04;24.60;74.10
12477;DHT22;6303;51.504;6.300;2023-05-10T02:35:32;24.50;74.00
12477;DHT22;6303;51.504;6.300;2023-05-10T02:38:02;24.60;74.10
12477;DHT22;6303;51.504;6.300;2023-05-10T02:40:32;24.50;74.00
12477;DHT22;6303;51.504;6.300;2023-05-10T02:43:01;24.50;74.10
12477;DHT22;6303;51.504;6.300;2023-05-10T02:45:31;24.50;74.00
12477;DHT22;6303;51.504;6.300;2023-05-10T02:47:59;24.50;74.00
12477;DHT22;6303;51.504;6.300;2023-05-10T02:50:28;24.30;73.90
12477;DHT22;6303;51.504;6.300;2023-05-10T02:53:03;24.50;74.00
12477;DHT22;6303;51.504;6.300;2023-05-10T02:55:36;24.50;74.00
12477;DHT22;6303;51.504;6.300;2023-05-10T02:58:05;24.50;74.10
12477;DHT22;6303;51.504;6.300;2023-05-10T03:00:33;24.50;74.20
12477;DHT22;6303;51.504;6.300;2023-05-10T03:03:01;24.50;74.10
12477;DHT22;6303;51.504;6.300;2023-05-10T03:05:28;24.50;74.10
12477;DHT22;6303;51.504;6.300;2023-05-10T03:07:59;24.50;74.10
12477;DHT22;6303;51.504;6.300;2023-05-10T03:10:32;24.50;74.10
12477;DHT22;6303;51.504;6.300;2023-05-10T03:13:10;24.50;74.10
12477;DHT22;6303;51.504;6.300;2023-05-10T03:15:47;24.50;74.20
12477;DHT22;6303;51.504;6.300;2023-05-10T03:18:18;24.50;74.40
12477;DHT22;6303;51.504;6.300;2023-05-10T03:20:49;24.40;74.30
12477;DHT22;6303;51.504;6.300;2023-05-10T03:23:22;24.50;74.10
12477;DHT22;6303;51.504;6.300;2023-05-10T03:25:55;24.90;74.20
12477;DHT22;6303;51.504;6.300;2023-05-10T03:28:25;24.50;73.80
12477;DHT22;6303;51.504;6.300;2023-05-10T03:30:53;24.50;73.80
12477;DHT22;6303;51.504;6.300;2023-05-10T03:33:21;24.50;73.90
12477;DHT22;6303;51.504;6.300;2023-05-10T03:35:49;24.50;73.90
12477;DHT22;6303;51.504;6.300;2023-05-10T03:38:16;24.50;73.90
12477;DHT22;6303;51.504;6.300;2023-05-10T03:40:43;24.50;73.80
12477;DHT22;6303;51.504;6.300;2023-05-10T03:43:11;24.50;73.70
12477;DHT22;6303;51.504;6.300;2023-05-10T03:45:38;24.50;73.80
12477;DHT22;6303;51.504;6.300;2023-05-10T03:48:06;24.50;73.90
12477;DHT22;6303;51.504;6.300;2023-05-10T03:50:33;24.50;74.20
12477;DHT22;6303;51.504;6.300;2023-05-10T03:53:00;24.50;74.30
12477;DHT22;6303;51.504;6.300;2023-05-10T03:55:28;24.50;74.50
12477;DHT22;6303;51.504;6.300;2023-05-10T03:57:56;24.50;74.70
12477;DHT22;6303;51.504;6.300;2023-05-10T04:00:25;24.50;75.10
12477;DHT22;6303;51.504;6.300;2023-05-10T04:02:54;24.50;76.30
12477;DHT22;6303;51.504;6.300;2023-05-10T04:05:22;24.50;77.30
12477;DHT22;6303;51.504;6.300;2023-05-10T04:07:51;24.50;76.70
12477;DHT22;6303;51.504;6.300;2023-05-10T04:10:18;24.50;76.00
12477;DHT22;6303;51.504;6.300;2023-05-10T04:12:46;24.50;75.40
12477;DHT22;6303;51.504;6.300;2023-05-10T04:15:13;24.50;74.70
12477;DHT22;6303;51.504;6.300;2023-05-10T04:17:41;24.50;74.00
12477;DHT22;6303;51.504;6.300;2023-05-10T04:20:09;24.50;73.80
12477;DHT22;6303;51.504;6.300;2023-05-10T04:22:37;24.50;73.70
12477;DHT22;6303;51.504;6.300;2023-05-10T04:25:05;24.50;72.50
12477;DHT22;6303;51.504;6.300;2023-05-10T04:27:32;24.50;72.20
12477;DHT22;6303;51.504;6.300;2023-05-10T04:29:59;24.50;71.80
12477;DHT22;6303;51.504;6.300;2023-05-10T04:32:26;24.50;71.50
12477;DHT22;6303;51.504;6.300;2023-05-10T04:34:55;24.50;71.30
12477;DHT22;6303;51.504;6.300;2023-05-10T04:37:22;24.50;71.00
12477;DHT22;6303;51.504;6.300;2023-05-10T04:39:49;24.60;71.00
12477;DHT22;6303;51.504;6.300;2023-05-10T04:42:16;24.50;70.80
12477;DHT22;6303;51.504;6.300;2023-05-10T04:44:43;24.50;70.50
12477;DHT22;6303;51.504;6.300;2023-05-10T04:47:10;24.50;70.10
12477;DHT22;6303;51.504;6.300;2023-05-10T04:49:38;24.50;69.60
12477;DHT22;6303;51.504;6.300;2023-05-10T04:52:07;24.50;69.10
12477;DHT22;6303;51.504;6.300;2023-05-10T04:54:34;24.50;68.90
12477;DHT22;6303;51.504;6.300;2023-05-10T04:57:01;24.50;68.80
12477;DHT22;6303;51.504;6.300;2023-05-10T04:59:28;24.50;68.80
12477;DHT22;6303;51.504;6.300;2023-05-10T05:01:55;24.40;68.60
12477;DHT22;6303;51.504;6.300;2023-05-10T05:04:22;24.50;68.50
12477;DHT22;6303;51.504;6.300;2023-05-10T05:06:49;24.40;68.30
12477;DHT22;6303;51.504;6.300;2023-05-10T05:09:18;24.40;68.00
12477;DHT22;6303;51.504;6.300;2023-05-10T05:11:45;24.50;68.00
12477;DHT22;6303;51.504;6.300;2023-05-10T05:14:12;24.40;68.00
12477;DHT22;6303;51.504;6.300;2023-05-10T05:16:39;24.40;67.70
12477;DHT22;6303;51.504;6.300;2023-05-10T05:19:06;24.40;67.60
12477;DHT22;6303;51.504;6.300;2023-05-10T05:21:33;24.40;67.50
12477;DHT22;6303;51.504;6.300;2023-05-10T05:24:00;24.40;67.80
12477;DHT22;6303;51.504;6.300;2023-05-10T05:26:29;24.40;67.30
12477;DHT22;6303;51.504;6.300;2023-05-10T05:28:56;24.40;67.10
12477;DHT22;6303;51.504;6.300;2023-05-10T05:31:22;24.40;67.00
12477;DHT22;6303;51.504;6.300;2023-05-10T05:33:49;24.40;66.80
12477;DHT22;6303;51.504;6.300;2023-05-10T05:36:17;24.40;66.90
12477;DHT22;6303;51.504;6.300;2023-05-10T05:38:44;24.40;66.70
12477;DHT22;6303;51.504;6.300;2023-05-10T05:41:11;24.40;66.50
12477;DHT22;6303;51.504;6.300;2023-05-10T05:43:39;24.40;66.30
12477;DHT22;6303;51.504;6.300;2023-05-10T05:46:06;24.40;66.20
12477;DHT22;6303;51.504;6.300;2023-05-10T05:48:33;24.40;66.20
12477;DHT22;6303;51.504;6.300;2023-05-10T05:51:00;24.40;66.00
12477;DHT22;6303;51.504;6.300;2023-05-10T05:53:28;23.70;65.60
12477;DHT22;6303;51.504;6.300;2023-05-10T05:55:56;24.40;65.90
12477;DHT22;6303;51.504;6.300;2023-05-10T05:58:23;24.40;65.90
12477;DHT22;6303;51.504;6.300;2023-05-10T06:00:52;24.40;65.90
12477;DHT22;6303;51.504;6.300;2023-05-10T06:03:20;24.40;65.90
12477;DHT22;6303;51.504;6.300;2023-05-10T06:05:47;24.40;65.80
12477;DHT22;6303;51.504;6.300;2023-05-10T06:08:14;24.40;65.60
12477;DHT22;6303;51.504;6.300;2023-05-10T06:10:41;24.40;65.50
12477;DHT22;6303;51.504;6.300;2023-05-10T06:13:08;24.40;65.40
12477;DHT22;6303;51.504;6.300;2023-05-10T06:15:35;24.40;65.30
12477;DHT22;6303;51.504;6.300;2023-05-10T06:18:04;24.40;65.20
12477;DHT22;6303;51.504;6.300;2023-05-10T06:20:31;24.40;65.30
12477;DHT22;6303;51.504;6.300;2023-05-10T06:22:58;24.40;65.30
12477;DHT22;6303;51.504;6.300;2023-05-10T06:25:25;24.40;65.30
12477;DHT22;6303;51.504;6.300;2023-05-10T06:27:52;24.40;65.40
12477;DHT22;6303;51.504;6.300;2023-05-10T06:30:23;24.40;65.30
12477;DHT22;6303;51.504;6.300;2023-05-10T06:32:53;24.40;65.20
12477;DHT22;6303;51.504;6.300;2023-05-10T06:35:21;24.40;65.30
12477;DHT22;6303;51.504;6.300;2023-05-10T06:37:49;24.40;65.30
12477;DHT22;6303;51.504;6.300;2023-05-10T06:40:16;24.40;65.20
12477;DHT22;6303;51.504;6.300;2023-05-10T06:42:43;24.40;65.10
12477;DHT22;6303;51.504;6.300;2023-05-10T06:45:12;24.40;65.00
12477;DHT22;6303;51.504;6.300;2023-05-10T06:47:40;24.40;64.90
12477;DHT22;6303;51.504;6.300;2023-05-10T06:50:08;24.40;64.80
12477;DHT22;6303;51.504;6.300;2023-05-10T06:52:37;24.40;64.70
12477;DHT22;6303;51.504;6.300;2023-05-10T06:55:05;24.40;64.70
12477;DHT22;6303;51.504;6.300;2023-05-10T06:57:32;24.40;64.70
12477;DHT22;6303;51.504;6.300;2023-05-10T06:59:59;24.40;64.50
12477;DHT22;6303;51.504;6.300;2023-05-10T07:02:26;24.40;64.30
12477;DHT22;6303;51.504;6.300;2023-05-10T07:04:53;24.40;64.30
12477;DHT22;6303;51.504;6.300;2023-05-10T07:07:21;24.40;64.10
12477;DHT22;6303;51.504;6.300;2023-05-10T07:09:49;24.40;64.00
12477;DHT22;6303;51.504;6.300;2023-05-10T07:12:17;24.40;63.90
12477;DHT22;6303;51.504;6.300;2023-05-10T07:14:44;24.00;63.50
12477;DHT22;6303;51.504;6.300;2023-05-10T07:17:11;24.40;63.70
12477;DHT22;6303;51.504;6.300;2023-05-10T07:19:38;24.40;63.70
12477;DHT22;6303;51.504;6.300;2023-05-10T07:22:05;24.40;63.50
12477;DHT22;6303;51.504;6.300;2023-05-10T07:24:32;24.40;63.50
12477;DHT22;6303;51.504;6.300;2023-05-10T07:27:00;24.50;63.50
12477;DHT22;6303;51.504;6.300;2023-05-10T07:29:27;24.50;63.10
12477;DHT22;6303;51.504;6.300;2023-05-10T07:31:55;24.50;62.90
12477;DHT22;6303;51.504;6.300;2023-05-10T07:34:22;24.50;62.70
12477;DHT22;6303;51.504;6.300;2023-05-10T07:36:49;23.30;61.90
12477;DHT22;6303;51.504;6.300;2023-05-10T07:39:16;24.60;62.40
12477;DHT22;6303;51.504;6.300;2023-05-10T07:41:43;24.60;62.20
12477;DHT22;6303;51.504;6.300;2023-05-10T07:44:11;24.70;62.20
12477;DHT22;6303;51.504;6.300;2023-05-10T07:46:38;24.70;61.90
12477;DHT22;6303;51.504;6.300;2023-05-10T07:49:06;24.80;61.90
12477;DHT22;6303;51.504;6.300;2023-05-10T07:51:33;24.80;61.90
12477;DHT22;6303;51.504;6.300;2023-05-10T07:54:00;24.80;61.90
12477;DHT22;6303;51.504;6.300;2023-05-10T07:56:29;24.80;61.60
12477;DHT22;6303;51.504;6.300;2023-05-10T07:58:58;24.80;61.40
12477;DHT22;6303;51.504;6.300;2023-05-10T08:01:29;24.80;61.20
12477;DHT22;6303;51.504;6.300;2023-05-10T08:03:56;24.80;61.20
12477;DHT22;6303;51.504;6.300;2023-05-10T08:06:23;24.80;61.40
12477;DHT22;6303;51.504;6.300;2023-05-10T08:08:52;24.80;61.30
12477;DHT22;6303;51.504;6.300;2023-05-10T08:11:20;24.80;61.10
12477;DHT22;6303;51.504;6.300;2023-05-10T08:13:48;24.80;60.90
12477;DHT22;6303;51.504;6.300;2023-05-10T08:16:15;24.80;61.60
12477;DHT22;6303;51.504;6.300;2023-05-10T08:18:44;24.80;60.70
12477;DHT22;6303;51.504;6.300;2023-05-10T08:21:12;24.80;60.90
12477;DHT22;6303;51.504;6.300;2023-05-10T08:23:39;24.80;61.10
12477;DHT22;6303;51.504;6.300;2023-05-10T08:26:07;24.80;61.10
12477;DHT22;6303;51.504;6.300;2023-05-10T08:28:34;24.80;61.30
12477;DHT22;6303;51.504;6.300;2023-05-10T08:31:01;24.80;61.50
12477;DHT22;6303;51.504;6.300;2023-05-10T08:33:28;24.70;61.60
12477;DHT22;6303;51.504;6.300;2023-05-10T08:35:56;24.70;61.60
12477;DHT22;6303;51.504;6.300;2023-05-10T08:38:23;24.70;61.50
12477;DHT22;6303;51.504;6.300;2023-05-10T08:40:54;24.70;61.50
12477;DHT22;6303;51.504;6.300;2023-05-10T08:43:26;24.70;61.60
12477;DHT22;6303;51.504;6.300;2023-05-10T08:45:54;24.70;61.40
12477;DHT22;6303;51.504;6.300;2023-05-10T08:48:23;24.70;61.50
12477;DHT22;6303;51.504;6.300;2023-05-10T08:50:53;24.70;61.60
12477;DHT22;6303;51.504;6.300;2023-05-10T08:53:24;24.70;61.50
12477;DHT22;6303;51.504;6.300;2023-05-10T08:55:53;24.70;61.50
12477;DHT22;6303;51.504;6.300;2023-05-10T08:58:20;24.70;61.90
12477;DHT22;6303;51.504;6.300;2023-05-10T09:00:49;24.70;62.90
12477;DHT22;6303;51.504;6.300;2023-05-10T09:03:18;24.80;63.40
12477;DHT22;6303;51.504;6.300;2023-05-10T09:05:45;24.80;63.70
12477;DHT22;6303;51.504;6.300;2023-05-10T09:08:13;24.80;63.80
12477;DHT22;6303;51.504;6.300;2023-05-10T09:10:43;24.80;64.20
12477;DHT22;6303;51.504;6.300;2023-05-10T09:13:14;24.80;64.30
12477;DHT22;6303;51.504;6.300;2023-05-10T09:15:44;24.80;64.20
12477;DHT22;6303;51.504;6.300;2023-05-10T09:18:12;24.80;63.60
12477;DHT22;6303;51.504;6.300;2023-05-10T09:20:40;24.80;63.60
12477;DHT22;6303;51.504;6.300;2023-05-10T09:23:07;24.80;63.70
12477;DHT22;6303;51.504;6.300;2023-05-10T09:25:34;24.80;63.80
12477;DHT22;6303;51.504;6.300;2023-05-10T09:28:06;24.80;63.90
12477;DHT22;6303;51.504;6.300;2023-05-10T09:30:33;24.80;63.90
12477;DHT22;6303;51.504;6.300;2023-05-10T09:33:00;24.80;64.00
12477;DHT22;6303;51.504;6.300;2023-05-10T09:35:29;24.80;64.30
12477;DHT22;6303;51.504;6.300;2023-05-10T09:37:59;24.80;63.60
12477;DHT22;6303;51.504;6.300;2023-05-10T09:40:28;24.80;63.20
12477;DHT22;6303;51.504;6.300;2023-05-10T09:42:57;24.80;63.00
12477;DHT22;6303;51.504;6.300;2023-05-10T09:45:27;24.80;63.40
12477;DHT22;6303;51.504;6.300;2023-05-10T09:47:55;24.80;64.00
12477;DHT22;6303;51.504;6.300;2023-05-10T09:50:22;24.80;64.30
12477;DHT22;6303;51.504;6.300;2023-05-10T09:52:51;24.80;64.30
12477;DHT22;6303;51.504;6.300;2023-05-10T09:55:19;24.90;64.30
12477;DHT22;6303;51.504;6.300;2023-05-10T09:57:48;24.90;64.40
12477;DHT22;6303;51.504;6.300;2023-05-10T10:00:19;24.90;64.40
12477;DHT22;6303;51.504;6.300;2023-05-10T10:02:54;24.90;64.40
12477;DHT22;6303;51.504;6.300;2023-05-10T10:05:28;24.90;64.30
12477;DHT22;6303;51.504;6.300;2023-05-10T10:07:56;24.90;64.40
12477;DHT22;6303;51.504;6.300;2023-05-10T10:10:24;24.90;64.20
12477;DHT22;6303;51.504;6.300;2023-05-10T10:12:51;25.00;64.20
12477;DHT22;6303;51.504;6.300;2023-05-10T10:15:19;24.90;65.20
12477;DHT22;6303;51.504;6.300;2023-05-10T10:17:48;24.90;64.60
12477;DHT22;6303;51.504;6.300;2023-05-10T10:20:17;24.90;64.70
12477;DHT22;6303;51.504;6.300;2023-05-10T10:22:44;24.90;64.50
12477;DHT22;6303;51.504;6.300;2023-05-10T10:25:13;25.00;64.70
12477;DHT22;6303;51.504;6.300;2023-05-10T10:27:47;25.00;64.50
12477;DHT22;6303;51.504;6.300;2023-05-10T10:30:30;25.00;64.50
12477;DHT22;6303;51.504;6.300;2023-05-10T10:33:13;25.00;65.20
12477;DHT22;6303;51.504;6.300;2023-05-10T10:35:45;25.00;64.70
12477;DHT22;6303;51.504;6.300;2023-05-10T10:38:13;25.00;64.60
12477;DHT22;6303;51.504;6.300;2023-05-10T10:40:40;25.00;64.40
12477;DHT22;6303;51.504;6.300;2023-05-10T10:43:24;25.00;64.50
12477;DHT22;6303;51.504;6.300;2023-05-10T10:46:10;25.00;64.50
12477;DHT22;6303;51.504;6.300;2023-05-10T10:48:40;25.00;64.40
12477;DHT22;6303;51.504;6.300;2023-05-10T10:51:07;25.00;64.20
12477;DHT22;6303;51.504;6.300;2023-05-10T10:53:34;25.40;64.60
12477;DHT22;6303;51.504;6.300;2023-05-10T10:56:07;25.00;64.30
12477;DHT22;6303;51.504;6.300;2023-05-10T10:58:36;25.00;64.40
12477;DHT22;6303;51.504;6.300;2023-05-10T11:01:14;25.10;64.30
12477;DHT22;6303;51.504;6.300;2023-05-10T11:06:37;25.00;63.10
12477;DHT22;6303;51.504;6.300;2023-05-10T11:09:06;25.00;62.30
12477;DHT22;6303;51.504;6.300;2023-05-10T11:11:34;25.00;62.10
12477;DHT22;6303;51.504;6.300;2023-05-10T11:14:03;25.00;62.10
12477;DHT22;6303;51.504;6.300;2023-05-10T11:16:41;25.00;62.00
12477;DHT22;6303;51.504;6.300;2023-05-10T11:19:11;25.00;61.80
12477;DHT22;6303;51.504;6.300;2023-05-10T11:21:45;25.00;61.70
12477;DHT22;6303;51.504;6.300;2023-05-10T11:24:14;25.00;61.30
12477;DHT22;6303;51.504;6.300;2023-05-10T11:26:42;25.00;61.10
12477;DHT22;6303;51.504;6.300;2023-05-10T11:29:09;25.00;61.20
12477;DHT22;6303;51.504;6.300;2023-05-10T11:31:42;25.00;61.10
12477;DHT22;6303;51.504;6.300;2023-05-10T11:34:11;25.00;61.00
12477;DHT22;6303;51.504;6.300;2023-05-10T11:36:42;25.00;61.00
12477;DHT22;6303;51.504;6.300;2023-05-10T11:39:09;25.00;60.90
12477;DHT22;6303;51.504;6.300;2023-05-10T11:41:37;25.00;60.90
12477;DHT22;6303;51.504;6.300;2023-05-10T11:44:04;25.00;60.70
12477;DHT22;6303;51.504;6.300;2023-05-10T11:46:32;25.10;60.60
12477;DHT22;6303;51.504;6.300;2023-05-10T11:49:00;25.10;60.30
12477;DHT22;6303;51.504;6.300;2023-05-10T11:51:33;25.10;60.50
12477;DHT22;6303;51.504;6.300;2023-05-10T11:54:02;25.10;60.60
12477;DHT22;6303;51.504;6.300;2023-05-10T11:56:32;25.10;60.30
12477;DHT22;6303;51.504;6.300;2023-05-10T11:59:00;25.10;59.80
12477;DHT22;6303;51.504;6.300;2023-05-10T12:01:29;25.10;59.70
12477;DHT22;6303;51.504;6.300;2023-05-10T12:03:57;25.10;60.00
12477;DHT22;6303;51.504;6.300;2023-05-10T12:06:27;25.10;60.20
12477;DHT22;6303;51.504;6.300;2023-05-10T12:08:55;25.10;59.90
12477;DHT22;6303;51.504;6.300;2023-05-10T12:11:25;25.10;59.60
12477;DHT22;6303;51.504;6.300;2023-05-10T12:13:53;25.10;59.60
12477;DHT22;6303;51.504;6.300;2023-05-10T12:16:21;24.60;59.20
12477;DHT22;6303;51.504;6.300;2023-05-10T12:18:49;25.00;59.50
12477;DHT22;6303;51.504;6.300;2023-05-10T12:21:16;25.00;59.30
12477;DHT22;6303;51.504;6.300;2023-05-10T12:23:45;25.00;59.30
12477;DHT22;6303;51.504;6.300;2023-05-10T12:26:14;25.00;59.20
12477;DHT22;6303;51.504;6.300;2023-05-10T12:28:41;25.00;59.40
12477;DHT22;6303;51.504;6.300;2023-05-10T12:31:08;25.00;59.50
12477;DHT22;6303;51.504;6.300;2023-05-10T12:33:36;25.00;59.50
12477;DHT22;6303;51.504;6.300;2023-05-10T12:36:05;25.00;59.60
12477;DHT22;6303;51.504;6.300;2023-05-10T12:38:33;25.00;59.70
12477;DHT22;6303;51.504;6.300;2023-05-10T12:41:02;25.00;59.70
12477;DHT22;6303;51.504;6.300;2023-05-10T12:43:32;25.00;59.70
12477;DHT22;6303;51.504;6.300;2023-05-10T12:46:04;25.00;59.70
12477;DHT22;6303;51.504;6.300;2023-05-10T12:48:32;25.00;59.60
12477;DHT22;6303;51.504;6.300;2023-05-10T12:50:59;25.10;59.70
12477;DHT22;6303;51.504;6.300;2023-05-10T12:53:26;25.10;59.60
12477;DHT22;6303;51.504;6.300;2023-05-10T12:55:54;25.10;59.70
12477;DHT22;6303;51.504;6.300;2023-05-10T12:58:21;25.10;59.60
12477;DHT22;6303;51.504;6.300;2023-05-10T13:00:50;25.10;59.70
12477;DHT22;6303;51.504;6.300;2023-05-10T13:03:18;25.10;59.90
12477;DHT22;6303;51.504;6.300;2023-05-10T13:05:45;25.10;59.90
12477;DHT22;6303;51.504;6.300;2023-05-10T13:08:12;25.10;59.90
12477;DHT22;6303;51.504;6.300;2023-05-10T13:10:39;25.10;60.10
12477;DHT22;6303;51.504;6.300;2023-05-10T13:13:06;25.10;60.00
12477;DHT22;6303;51.504;6.300;2023-05-10T13:15:34;25.20;60.00
12477;DHT22;6303;51.504;6.300;2023-05-10T13:18:02;25.10;59.70
12477;DHT22;6303;51.504;6.300;2023-05-10T13:20:29;25.20;59.80
12477;DHT22;6303;51.504;6.300;2023-05-10T13:22:56;25.20;59.90
12477;DHT22;6303;51.504;6.300;2023-05-10T13:25:24;25.20;59.90
12477;DHT22;6303;51.504;6.300;2023-05-10T13:27:51;25.20;60.00
12477;DHT22;6303;51.504;6.300;2023-05-10T13:30:18;25.20;60.00
12477;DHT22;6303;51.504;6.300;2023-05-10T13:32:46;25.20;60.10
12477;DHT22;6303;51.504;6.300;2023-05-10T13:35:14;25.10;59.70
12477;DHT22;6303;51.504;6.300;2023-05-10T13:37:41;25.10;59.90
12477;DHT22;6303;51.504;6.300;2023-05-10T13:40:08;24.70;59.70
12477;DHT22;6303;51.504;6.300;2023-05-10T13:42:36;25.10;60.10
12477;DHT22;6303;51.504;6.300;2023-05-10T13:45:03;25.10;60.30
12477;DHT22;6303;51.504;6.300;2023-05-10T13:47:31;25.10;60.20
12477;DHT22;6303;51.504;6.300;2023-05-10T13:49:58;25.10;60.00
12477;DHT22;6303;51.504;6.300;2023-05-10T13:52:26;25.10;60.20
12477;DHT22;6303;51.504;6.300;2023-05-10T13:54:53;25.10;60.10
12477;DHT22;6303;51.504;6.300;2023-05-10T13:57:21;25.00;59.50
12477;DHT22;6303;51.504;6.300;2023-05-10T13:59:49;25.00;59.40
12477;DHT22;6303;51.504;6.300;2023-05-10T14:02:16;25.00;59.60
12477;DHT22;6303;51.504;6.300;2023-05-10T14:04:43;25.00;59.60
12477;DHT22;6303;51.504;6.300;2023-05-10T14:07:10;25.00;59.90
12477;DHT22;6303;51.504;6.300;2023-05-10T14:09:39;25.00;60.20
12477;DHT22;6303;51.504;6.300;2023-05-10T14:12:06;25.00;60.40
12477;DHT22;6303;51.504;6.300;2023-05-10T14:14:33;25.00;60.70
12477;DHT22;6303;51.504;6.300;2023-05-10T14:17:00;25.00;61.00
12477;DHT22;6303;51.504;6.300;2023-05-10T14:19:27;25.00;60.90
12477;DHT22;6303;51.504;6.300;2023-05-10T14:21:56;25.00;60.80
12477;DHT22;6303;51.504;6.300;2023-05-10T14:24:23;25.00;60.80
12477;DHT22;6303;51.504;6.300;2023-05-10T14:26:51;25.00;60.70
12477;DHT22;6303;51.504;6.300;2023-05-10T14:29:19;25.00;60.70
12477;DHT22;6303;51.504;6.300;2023-05-10T14:31:46;25.00;60.70
12477;DHT22;6303;51.504;6.300;2023-05-10T14:34:13;25.00;60.70
12477;DHT22;6303;51.504;6.300;2023-05-10T14:36:40;25.00;60.70
12477;DHT22;6303;51.504;6.300;2023-05-10T14:39:07;25.00;60.90
12477;DHT22;6303;51.504;6.300;2023-05-10T14:41:35;25.00;61.10
12477;DHT22;6303;51.504;6.300;2023-05-10T14:44:04;25.00;62.00
12477;DHT22;6303;51.504;6.300;2023-05-10T14:46:31;25.00;61.30
12477;DHT22;6303;51.504;6.300;2023-05-10T14:49:00;25.00;61.40
12477;DHT22;6303;51.504;6.300;2023-05-10T14:51:26;25.00;61.40
12477;DHT22;6303;51.504;6.300;2023-05-10T14:53:53;25.00;61.50
12477;DHT22;6303;51.504;6.300;2023-05-10T14:56:21;25.00;61.40
12477;DHT22;6303;51.504;6.300;2023-05-10T14:58:49;25.00;61.40
12477;DHT22;6303;51.504;6.300;2023-05-10T15:01:17;24.90;61.40
12477;DHT22;6303;51.504;6.300;2023-05-10T15:03:44;24.90;61.30
12477;DHT22;6303;51.504;6.300;2023-05-10T15:06:13;24.90;61.30
12477;DHT22;6303;51.504;6.300;2023-05-10T15:08:40;24.90;61.60
12477;DHT22;6303;51.504;6.300;2023-05-10T15:11:07;24.90;61.80
12477;DHT22;6303;51.504;6.300;2023-05-10T15:13:34;24.90;61.60
12477;DHT22;6303;51.504;6.300;2023-05-10T15:16:01;24.90;61.60
12477;DHT22;6303;51.504;6.300;2023-05-10T15:18:29;24.80;61.60
12477;DHT22;6303;51.504;6.300;2023-05-10T15:20:56;24.80;61.70
12477;DHT22;6303;51.504;6.300;2023-05-10T15:23:24;24.80;62.00
12477;DHT22;6303;51.504;6.300;2023-05-10T15:25:51;24.80;62.00
12477;DHT22;6303;51.504;6.300;2023-05-10T15:28:21;24.80;62.10
12477;DHT22;6303;51.504;6.300;2023-05-10T15:30:48;24.80;62.40
12477;DHT22;6303;51.504;6.300;2023-05-10T15:33:15;24.80;62.90
12477;DHT22;6303;51.504;6.300;2023-05-10T15:35:43;24.80;62.70
12477;DHT22;6303;51.504;6.300;2023-05-10T15:38:10;24.80;62.90
12477;DHT22;6303;51.504;6.300;2023-05-10T15:40:37;24.80;62.90
12477;DHT22;6303;51.504;6.300;2023-05-10T15:43:04;24.80;63.00
12477;DHT22;6303;51.504;6.300;2023-05-10T15:45:32;24.80;62.70
12477;DHT22;6303;51.504;6.300;2023-05-10T15:47:59;24.80;62.60
12477;DHT22;6303;51.504;6.300;2023-05-10T15:50:26;24.70;62.60
12477;DHT22;6303;51.504;6.300;2023-05-10T15:52:55;24.70;62.80
12477;DHT22;6303;51.504;6.300;2023-05-10T15:55:22;24.70;63.00
12477;DHT22;6303;51.504;6.300;2023-05-10T15:57:49;24.70;62.90
12477;DHT22;6303;51.504;6.300;2023-05-10T16:00:16;24.70;62.80